Time;durP1;ratioP1;P1;durP2;ratioP2;P2;SDS_P1;SDS_P2;PMS_P1;PMS_P2;Temp;Humidity;BMP_temperature;BMP_pressure;BME280_temperature;BME280_humidity;BME280_pressure;Samples;Min_cycle;Max_cycle;Signal;HPM_P1;HPM_P2
2021/09/15 00:00:32;;;;;;;38.38;19.95;;;;;;;;;;5083273;28;20056;-75
2021/09/15 00:02:57;;;;;;;34.75;18.02;;;;;;;;;;5065475;28;20028;-73
2021/09/15 00:05:23;;;;;;;43.80;18.70;;;;;;;;;;5066337;28;20028;-74
2021/09/15 00:07:48;;;;;;;39.58;20.33;;;;;;;;;;5063411;28;20028;-75
2021/09/15 00:10:14;;;;;;;46.20;19.65;;;;;;;;;;5081466;28;20490;-75
2021/09/15 00:12:39;;;;;;;42.53;18.95;;;;;;;;;;5065896;28;20726;-75
2021/09/15 00:15:06;;;;;;;39.92;20.33;;;;;;;;;;5064264;28;20036;-75
2021/09/15 00:17:31;;;;;;;38.65;18.73;;;;;;;;;;5065565;28;20040;-74
2021/09/15 00:19:57;;;;;;;34.33;18.73;;;;;;;;;;5061785;28;20048;-75
2021/09/15 00:22:22;;;;;;;43.45;20.45;;;;;;;;;;5048693;28;22648;-74
2021/09/15 00:24:47;;;;;;;39.63;19.13;;;;;;;;;;5064176;28;20064;-75
2021/09/15 00:27:13;;;;;;;36.40;18.83;;;;;;;;;;5075244;28;20031;-74
2021/09/15 00:29:38;;;;;;;38.60;18.65;;;;;;;;;;5064004;28;20059;-74
2021/09/15 00:32:05;;;;;;;34.92;19.23;;;;;;;;;;5064767;28;20039;-74
2021/09/15 00:34:31;;;;;;;42.33;20.60;;;;;;;;;;5080569;28;20028;-74
2021/09/15 00:36:57;;;;;;;35.65;19.63;;;;;;;;;;5063279;28;20033;-74
2021/09/15 00:39:23;;;;;;;34.63;17.83;;;;;;;;;;5061340;28;20025;-74
2021/09/15 00:41:49;;;;;;;33.40;19.10;;;;;;;;;;5065573;28;20029;-74
2021/09/15 00:44:15;;;;;;;32.22;18.73;;;;;;;;;;5064224;28;20150;-74
2021/09/15 00:46:41;;;;;;;35.20;17.92;;;;;;;;;;5064331;28;20034;-74
2021/09/15 00:49:08;;;;;;;35.75;18.63;;;;;;;;;;5067281;28;20024;-74
2021/09/15 00:51:36;;;;;;;37.00;19.77;;;;;;;;;;5065337;28;20032;-74
2021/09/15 00:54:06;;;;;;;36.33;18.70;;;;;;;;;;5061658;28;20032;-74
2021/09/15 00:56:32;;;;;;;36.60;18.80;;;;;;;;;;5068164;28;20107;-74
2021/09/15 00:58:58;;;;;;;33.65;17.20;;;;;;;;;;5064897;28;20028;-75
2021/09/15 01:01:23;;;;;;;34.72;18.42;;;;;;;;;;5063897;28;20684;-75
2021/09/15 01:03:49;;;;;;;36.80;19.73;;;;;;;;;;5062804;28;20591;-74
2021/09/15 01:06:14;;;;;;;36.70;18.67;;;;;;;;;;5077442;28;20033;-74
2021/09/15 01:08:41;;;;;;;35.08;18.38;;;;;;;;;;5064753;28;20040;-74
2021/09/15 01:11:08;;;;;;;33.38;17.58;;;;;;;;;;5077588;28;20090;-74
2021/09/15 01:13:34;;;;;;;30.30;17.20;;;;;;;;;;5065081;28;20131;-74
2021/09/15 01:16:00;;;;;;;30.30;16.58;;;;;;;;;;5063224;28;20482;-74
2021/09/15 01:18:26;;;;;;;30.13;16.65;;;;;;;;;;5063078;28;20122;-74
2021/09/15 01:20:51;;;;;;;29.55;17.00;;;;;;;;;;5080337;28;20024;-74
2021/09/15 01:23:17;;;;;;;29.55;16.40;;;;;;;;;;5063481;28;20051;-75
2021/09/15 01:25:43;;;;;;;28.20;15.95;;;;;;;;;;5064817;28;20110;-74
2021/09/15 01:28:09;;;;;;;30.00;16.33;;;;;;;;;;5063375;28;20119;-74
2021/09/15 01:30:34;;;;;;;24.15;14.80;;;;;;;;;;5064329;28;20754;-74
2021/09/15 01:33:00;;;;;;;33.90;16.98;;;;;;;;;;5064282;28;20032;-75
2021/09/15 01:35:26;;;;;;;26.40;15.52;;;;;;;;;;5065195;28;20036;-75
2021/09/15 01:37:51;;;;;;;30.73;15.68;;;;;;;;;;5063053;28;20665;-74
2021/09/15 01:40:17;;;;;;;25.88;14.55;;;;;;;;;;5063101;28;20044;-74
2021/09/15 01:42:43;;;;;;;25.13;14.55;;;;;;;;;;5064889;28;20478;-74
2021/09/15 01:45:10;;;;;;;23.60;15.15;;;;;;;;;;5080025;28;20032;-74
2021/09/15 01:47:36;;;;;;;27.88;15.95;;;;;;;;;;5064749;28;20059;-74
2021/09/15 01:50:03;;;;;;;25.33;15.13;;;;;;;;;;5057877;28;20063;-74
2021/09/15 01:52:28;;;;;;;24.00;14.75;;;;;;;;;;5062971;28;20033;-75
2021/09/15 01:54:54;;;;;;;22.95;13.20;;;;;;;;;;5079490;28;20032;-74
2021/09/15 01:57:19;;;;;;;22.45;14.30;;;;;;;;;;5058263;28;20041;-74
2021/09/15 01:59:45;;;;;;;23.77;14.43;;;;;;;;;;5047041;28;20120;-74
2021/09/15 02:02:13;;;;;;;22.73;13.65;;;;;;;;;;5064425;28;20056;-74
2021/09/15 02:04:40;;;;;;;22.15;12.85;;;;;;;;;;5063255;28;20056;-74
2021/09/15 02:07:07;;;;;;;27.02;14.38;;;;;;;;;;5064793;28;20039;-74
2021/09/15 02:09:32;;;;;;;24.40;13.90;;;;;;;;;;5064315;28;20036;-74
2021/09/15 02:11:58;;;;;;;19.58;13.05;;;;;;;;;;5061676;28;20529;-74
2021/09/15 02:14:23;;;;;;;23.55;14.00;;;;;;;;;;5064015;28;20111;-74
2021/09/15 02:16:50;;;;;;;22.92;12.73;;;;;;;;;;5066234;28;20153;-75
2021/09/15 02:19:16;;;;;;;18.63;12.40;;;;;;;;;;5064038;28;20502;-74
2021/09/15 02:21:41;;;;;;;22.25;13.48;;;;;;;;;;5063165;28;20116;-74
2021/09/15 02:24:07;;;;;;;21.33;12.55;;;;;;;;;;5065794;28;20040;-74
2021/09/15 02:26:33;;;;;;;25.13;13.85;;;;;;;;;;5062370;28;20182;-74
2021/09/15 02:28:59;;;;;;;24.17;11.80;;;;;;;;;;5062423;28;20025;-74
2021/09/15 02:31:25;;;;;;;25.55;12.27;;;;;;;;;;5064399;28;20060;-74
2021/09/15 02:33:51;;;;;;;21.85;12.77;;;;;;;;;;5064310;28;20074;-74
2021/09/15 02:36:16;;;;;;;24.77;12.63;;;;;;;;;;5058155;28;20151;-74
2021/09/15 02:38:42;;;;;;;21.95;11.55;;;;;;;;;;5062566;28;20032;-74
2021/09/15 02:41:08;;;;;;;20.42;12.07;;;;;;;;;;5063697;28;20497;-75
2021/09/15 02:43:33;;;;;;;17.63;11.45;;;;;;;;;;5060812;28;20036;-74
2021/09/15 02:45:59;;;;;;;21.45;11.60;;;;;;;;;;5059168;28;20523;-74
2021/09/15 02:48:25;;;;;;;21.00;11.95;;;;;;;;;;5075963;28;20037;-73
2021/09/15 02:50:50;;;;;;;18.42;11.57;;;;;;;;;;5062453;28;20082;-75
2021/09/15 02:53:16;;;;;;;20.10;11.77;;;;;;;;;;5064521;28;20032;-74
2021/09/15 02:55:41;;;;;;;25.20;11.55;;;;;;;;;;5046939;28;20109;-75
2021/09/15 02:58:07;;;;;;;21.08;11.95;;;;;;;;;;5064366;28;20562;-75
2021/09/15 03:00:33;;;;;;;17.30;10.88;;;;;;;;;;5066629;28;20004;-75
2021/09/15 03:02:58;;;;;;;17.20;11.15;;;;;;;;;;5080760;28;20020;-75
2021/09/15 03:05:24;;;;;;;18.52;12.00;;;;;;;;;;5066597;28;20590;-75
2021/09/15 03:07:49;;;;;;;18.02;10.95;;;;;;;;;;5066836;28;20623;-74
2021/09/15 03:10:15;;;;;;;21.40;11.60;;;;;;;;;;5051763;28;20143;-75
2021/09/15 03:12:40;;;;;;;16.83;10.75;;;;;;;;;;5072257;28;20029;-74
2021/09/15 03:15:07;;;;;;;14.45;10.23;;;;;;;;;;5068125;28;20037;-75
2021/09/15 03:17:32;;;;;;;15.10;10.57;;;;;;;;;;5072157;28;20032;-75
2021/09/15 03:19:57;;;;;;;15.80;9.95;;;;;;;;;;5083942;28;20040;-75
2021/09/15 03:22:23;;;;;;;16.90;10.32;;;;;;;;;;5081278;28;20035;-74
2021/09/15 03:24:48;;;;;;;17.25;10.40;;;;;;;;;;5065589;28;20045;-75
2021/09/15 03:27:14;;;;;;;16.83;9.57;;;;;;;;;;5070489;28;20489;-75
2021/09/15 03:29:40;;;;;;;17.50;9.90;;;;;;;;;;5067548;28;20035;-74
2021/09/15 03:32:05;;;;;;;13.65;9.38;;;;;;;;;;5065943;28;20040;-74
2021/09/15 03:34:31;;;;;;;13.02;9.23;;;;;;;;;;5068007;28;20039;-75
2021/09/15 03:36:56;;;;;;;14.02;9.65;;;;;;;;;;5082642;28;20524;-74
2021/09/15 03:39:22;;;;;;;13.95;9.52;;;;;;;;;;5068055;28;20041;-74
2021/09/15 03:41:48;;;;;;;13.48;9.68;;;;;;;;;;5065634;28;20032;-74
2021/09/15 03:44:13;;;;;;;16.13;9.00;;;;;;;;;;5065964;28;20173;-75
2021/09/15 03:46:38;;;;;;;13.68;9.23;;;;;;;;;;5065042;28;20085;-75
2021/09/15 03:49:04;;;;;;;13.35;8.90;;;;;;;;;;5056545;28;20044;-75
2021/09/15 03:51:31;;;;;;;15.40;8.63;;;;;;;;;;5066211;28;20587;-75
2021/09/15 03:53:57;;;;;;;15.65;8.20;;;;;;;;;;5077047;28;20057;-74
2021/09/15 03:56:22;;;;;;;14.13;8.57;;;;;;;;;;5078798;28;20071;-75
2021/09/15 03:58:48;;;;;;;12.77;7.85;;;;;;;;;;5065276;28;20036;-74
2021/09/15 04:01:14;;;;;;;10.77;8.02;;;;;;;;;;5065239;28;20111;-74
2021/09/15 04:03:40;;;;;;;12.73;8.68;;;;;;;;;;5077302;28;20075;-74
2021/09/15 04:06:06;;;;;;;11.65;8.88;;;;;;;;;;5082174;28;20044;-74
2021/09/15 04:08:32;;;;;;;16.15;8.85;;;;;;;;;;5060447;28;20077;-74
2021/09/15 04:10:58;;;;;;;14.10;8.63;;;;;;;;;;5066316;28;20028;-74
2021/09/15 04:13:23;;;;;;;13.85;8.55;;;;;;;;;;5062970;28;20100;-74
2021/09/15 04:15:49;;;;;;;12.02;8.73;;;;;;;;;;5067389;28;20028;-75
2021/09/15 04:18:14;;;;;;;13.85;8.90;;;;;;;;;;5076959;28;20028;-75
2021/09/15 04:20:41;;;;;;;13.93;8.70;;;;;;;;;;5065059;28;20055;-74
2021/09/15 04:33:44;;;;;;;11.38;8.07;;;;;;;;;;5065982;28;20104;-74
2021/09/15 04:36:09;;;;;;;11.93;8.55;;;;;;;;;;5066302;28;20036;-74
2021/09/15 04:38:35;;;;;;;11.98;7.82;;;;;;;;;;5075291;28;20055;-74
2021/09/15 04:41:00;;;;;;;11.82;8.25;;;;;;;;;;5064042;28;20037;-75
2021/09/15 04:43:26;;;;;;;14.80;8.18;;;;;;;;;;5072532;28;20090;-74
2021/09/15 04:45:51;;;;;;;16.45;8.95;;;;;;;;;;5067271;28;20032;-76
2021/09/15 04:48:17;;;;;;;13.70;8.88;;;;;;;;;;5066595;28;20067;-75
2021/09/15 04:50:42;;;;;;;17.33;9.00;;;;;;;;;;5065175;28;20448;-74
2021/09/15 04:53:08;;;;;;;14.15;8.98;;;;;;;;;;5082238;28;20500;-74
2021/09/15 04:55:33;;;;;;;13.90;8.77;;;;;;;;;;5080855;28;20136;-74
2021/09/15 04:57:59;;;;;;;13.27;9.07;;;;;;;;;;5080501;28;20055;-75
2021/09/15 05:00:25;;;;;;;13.07;8.55;;;;;;;;;;5065044;28;20115;-75
2021/09/15 05:02:50;;;;;;;15.85;8.93;;;;;;;;;;5081416;28;20103;-74
2021/09/15 05:05:16;;;;;;;13.70;8.90;;;;;;;;;;5062782;28;20040;-75
2021/09/15 05:07:41;;;;;;;13.88;8.60;;;;;;;;;;5063524;28;20036;-74
2021/09/15 05:10:08;;;;;;;11.95;8.82;;;;;;;;;;5058853;28;20099;-75
2021/09/15 05:12:33;;;;;;;16.00;9.25;;;;;;;;;;5062239;28;20513;-75
2021/09/15 05:14:59;;;;;;;16.42;9.63;;;;;;;;;;5065393;28;20032;-74
2021/09/15 05:17:25;;;;;;;16.27;10.55;;;;;;;;;;5065837;28;20024;-75
2021/09/15 05:19:50;;;;;;;21.40;10.82;;;;;;;;;;5060152;28;20477;-75
2021/09/15 05:22:16;;;;;;;26.42;12.65;;;;;;;;;;5065275;28;20066;-75
2021/09/15 05:24:42;;;;;;;19.63;11.95;;;;;;;;;;5061156;28;20525;-75
2021/09/15 05:27:07;;;;;;;19.25;11.90;;;;;;;;;;5062821;28;20060;-74
2021/09/15 05:29:33;;;;;;;22.77;11.52;;;;;;;;;;5065700;28;20078;-75
2021/09/15 05:31:58;;;;;;;20.80;12.18;;;;;;;;;;5064077;28;20052;-75
2021/09/15 05:34:24;;;;;;;16.05;9.95;;;;;;;;;;5063916;28;20012;-75
2021/09/15 05:36:49;;;;;;;18.17;9.85;;;;;;;;;;5063511;28;20037;-74
2021/09/15 05:39:15;;;;;;;13.27;9.55;;;;;;;;;;5064536;28;20063;-74
2021/09/15 05:41:40;;;;;;;16.85;9.18;;;;;;;;;;5065545;28;20020;-75
2021/09/15 05:44:06;;;;;;;14.52;10.13;;;;;;;;;;5065236;28;20040;-74
2021/09/15 05:46:31;;;;;;;11.05;8.60;;;;;;;;;;5062688;28;20032;-75
2021/09/15 05:48:57;;;;;;;12.30;8.85;;;;;;;;;;5065542;28;20594;-75
2021/09/15 05:51:22;;;;;;;14.40;7.82;;;;;;;;;;5060729;28;20537;-75
2021/09/15 05:53:48;;;;;;;12.48;8.27;;;;;;;;;;5066616;28;20032;-74
2021/09/15 05:56:13;;;;;;;17.13;9.00;;;;;;;;;;5064741;28;20032;-74
2021/09/15 05:58:39;;;;;;;15.73;8.48;;;;;;;;;;5063586;28;20028;-75
2021/09/15 06:01:06;;;;;;;12.00;7.90;;;;;;;;;;5078814;28;20551;-75
2021/09/15 06:03:32;;;;;;;8.95;6.97;;;;;;;;;;5061407;28;20660;-75
2021/09/15 06:05:57;;;;;;;12.40;8.50;;;;;;;;;;5075857;28;20046;-74
2021/09/15 06:08:23;;;;;;;10.35;7.65;;;;;;;;;;5064223;28;20044;-75
2021/09/15 06:10:49;;;;;;;16.45;8.52;;;;;;;;;;5061656;28;20040;-74
2021/09/15 06:13:14;;;;;;;13.43;8.25;;;;;;;;;;5071299;28;20028;-74
2021/09/15 06:15:40;;;;;;;11.73;7.93;;;;;;;;;;5046635;28;20033;-74
2021/09/15 06:18:05;;;;;;;10.43;8.35;;;;;;;;;;5077041;28;20771;-75
2021/09/15 06:20:31;;;;;;;17.80;8.95;;;;;;;;;;5064693;28;20121;-74
2021/09/15 06:22:56;;;;;;;11.27;8.20;;;;;;;;;;5072850;28;20036;-74
2021/09/15 06:25:24;;;;;;;12.27;8.20;;;;;;;;;;5058519;28;20021;-74
2021/09/15 06:27:51;;;;;;;11.95;8.25;;;;;;;;;;5063373;28;20032;-74
2021/09/15 06:30:16;;;;;;;13.40;8.95;;;;;;;;;;5060589;28;20116;-74
2021/09/15 06:32:42;;;;;;;14.63;9.35;;;;;;;;;;5058321;28;20107;-75
2021/09/15 06:35:10;;;;;;;19.25;8.93;;;;;;;;;;5064053;28;20421;-74
2021/09/15 06:37:35;;;;;;;15.63;10.23;;;;;;;;;;5084182;28;20508;-74
2021/09/15 06:40:01;;;;;;;14.20;9.20;;;;;;;;;;5066102;28;20036;-75
2021/09/15 06:42:26;;;;;;;13.00;8.90;;;;;;;;;;5065651;28;20093;-75
2021/09/15 06:44:52;;;;;;;12.02;8.77;;;;;;;;;;5069125;28;20456;-75
2021/09/15 06:47:17;;;;;;;16.80;10.30;;;;;;;;;;5064866;28;20036;-75
2021/09/15 06:49:43;;;;;;;15.98;10.63;;;;;;;;;;5058374;28;20275;-74
2021/09/15 06:52:08;;;;;;;15.88;9.27;;;;;;;;;;5063218;28;20115;-74
2021/09/15 06:54:34;;;;;;;18.58;10.90;;;;;;;;;;5049603;28;20556;-75
2021/09/15 06:56:59;;;;;;;21.58;10.35;;;;;;;;;;5065804;28;20038;-74
2021/09/15 06:59:25;;;;;;;16.38;10.68;;;;;;;;;;5066888;28;20036;-74
2021/09/15 07:01:50;;;;;;;18.08;11.60;;;;;;;;;;5067579;28;22410;-74
2021/09/15 07:04:16;;;;;;;20.65;11.30;;;;;;;;;;5062380;28;20040;-74
2021/09/15 07:06:41;;;;;;;21.02;11.25;;;;;;;;;;5062023;28;20541;-74
2021/09/15 07:09:08;;;;;;;15.93;10.85;;;;;;;;;;5061666;28;20029;-74
2021/09/15 07:11:34;;;;;;;19.42;12.88;;;;;;;;;;5067113;28;20115;-75
2021/09/15 07:14:03;;;;;;;26.42;12.73;;;;;;;;;;5065426;28;20557;-74
2021/09/15 07:16:29;;;;;;;22.27;12.40;;;;;;;;;;5067193;28;20028;-74
2021/09/15 07:18:55;;;;;;;31.55;14.88;;;;;;;;;;5067613;28;20374;-74
2021/09/15 07:21:20;;;;;;;29.75;14.70;;;;;;;;;;5066607;28;20048;-74
2021/09/15 07:23:46;;;;;;;34.28;16.70;;;;;;;;;;5064846;28;20432;-75
2021/09/15 07:26:11;;;;;;;35.42;16.40;;;;;;;;;;5067542;28;20660;-74
2021/09/15 07:28:37;;;;;;;41.75;18.98;;;;;;;;;;5062855;28;20039;-75
2021/09/15 07:31:02;;;;;;;37.05;16.80;;;;;;;;;;5063378;28;20525;-74
2021/09/15 07:33:32;;;;;;;37.75;17.88;;;;;;;;;;5079848;28;20454;-75
2021/09/15 07:36:02;;;;;;;41.33;18.40;;;;;;;;;;5065921;28;20090;-74
2021/09/15 07:38:28;;;;;;;35.08;17.45;;;;;;;;;;5059446;28;20062;-75
2021/09/15 07:40:54;;;;;;;39.28;16.42;;;;;;;;;;5081655;28;20108;-74
2021/09/15 07:43:20;;;;;;;35.17;17.75;;;;;;;;;;5080576;28;20132;-74
2021/09/15 07:45:45;;;;;;;36.08;17.13;;;;;;;;;;5066945;28;20059;-74
2021/09/15 07:48:11;;;;;;;36.08;17.88;;;;;;;;;;5060150;28;20040;-75
2021/09/15 07:50:36;;;;;;;36.83;19.30;;;;;;;;;;5067303;28;20036;-75
2021/09/15 07:53:02;;;;;;;41.67;18.15;;;;;;;;;;5067500;28;20037;-75
2021/09/15 07:55:27;;;;;;;43.75;18.60;;;;;;;;;;5080040;28;20033;-75
2021/09/15 07:57:53;;;;;;;29.48;17.05;;;;;;;;;;5061057;28;20017;-74
2021/09/15 08:00:19;;;;;;;45.80;18.90;;;;;;;;;;5060402;28;20033;-74
2021/09/15 08:02:45;;;;;;;46.47;19.30;;;;;;;;;;5045747;28;20024;-75
2021/09/15 08:05:11;;;;;;;42.15;17.80;;;;;;;;;;5060827;28;20029;-75
2021/09/15 08:07:36;;;;;;;36.72;17.30;;;;;;;;;;5074515;28;20040;-75
2021/09/15 08:10:04;;;;;;;34.83;16.90;;;;;;;;;;5044852;28;20071;-74
2021/09/15 08:12:29;;;;;;;27.58;16.55;;;;;;;;;;5079412;28;20032;-74
2021/09/15 08:14:55;;;;;;;34.47;16.48;;;;;;;;;;5061878;28;20033;-74
2021/09/15 08:17:20;;;;;;;31.23;15.40;;;;;;;;;;5074260;28;20040;-74
2021/09/15 08:19:46;;;;;;;35.17;17.75;;;;;;;;;;5042374;28;20036;-74
2021/09/15 08:22:11;;;;;;;36.58;17.02;;;;;;;;;;5061570;28;20044;-75
2021/09/15 08:24:37;;;;;;;36.30;17.65;;;;;;;;;;5077121;28;20974;-75
2021/09/15 08:27:02;;;;;;;32.17;15.48;;;;;;;;;;5066846;28;20454;-74
2021/09/15 08:29:28;;;;;;;39.65;15.95;;;;;;;;;;5061828;28;20025;-74
2021/09/15 08:31:53;;;;;;;37.75;16.20;;;;;;;;;;5062636;28;20566;-75
2021/09/15 08:34:19;;;;;;;31.63;17.02;;;;;;;;;;5071791;28;20029;-74
2021/09/15 08:36:44;;;;;;;31.25;15.00;;;;;;;;;;5076806;28;20429;-74
2021/09/15 08:39:10;;;;;;;36.88;16.27;;;;;;;;;;5081172;28;20063;-75
2021/09/15 08:41:35;;;;;;;27.42;15.85;;;;;;;;;;5076266;28;20055;-75
2021/09/15 08:44:01;;;;;;;31.85;16.40;;;;;;;;;;5063159;28;20043;-75
2021/09/15 08:46:28;;;;;;;32.40;15.25;;;;;;;;;;5060791;28;20093;-74
2021/09/15 08:48:58;;;;;;;28.08;15.32;;;;;;;;;;5063844;28;20178;-74
2021/09/15 08:51:23;;;;;;;29.27;16.63;;;;;;;;;;5072955;28;20029;-74
2021/09/15 08:53:49;;;;;;;27.88;17.05;;;;;;;;;;5065536;28;20497;-74
2021/09/15 08:56:15;;;;;;;32.78;16.05;;;;;;;;;;5062126;28;20079;-75
2021/09/15 08:58:41;;;;;;;32.85;16.05;;;;;;;;;;5059746;28;20076;-75
2021/09/15 09:01:24;;;;;;;30.60;15.40;;;;;;;;;;5054708;28;20032;-75
2021/09/15 09:03:52;;;;;;;27.30;14.63;;;;;;;;;;5061845;28;20731;-75
2021/09/15 09:06:20;;;;;;;41.88;18.20;;;;;;;;;;5063529;28;20029;-75
2021/09/15 09:08:52;;;;;;;28.83;16.92;;;;;;;;;;5061623;28;20029;-75
2021/09/15 09:11:18;;;;;;;33.83;17.55;;;;;;;;;;5059405;28;20024;-75
2021/09/15 09:13:47;;;;;;;26.60;15.35;;;;;;;;;;5062344;28;20051;-75
2021/09/15 09:16:13;;;;;;;32.95;16.77;;;;;;;;;;5062707;28;20189;-74
2021/09/15 09:19:01;;;;;;;31.02;16.58;;;;;;;;;;5058925;28;20131;-75
2021/09/15 09:21:32;;;;;;;44.40;20.02;;;;;;;;;;5061303;28;20024;-75
2021/09/15 09:23:59;;;;;;;38.38;18.67;;;;;;;;;;5062348;28;20032;-76
2021/09/15 09:26:45;;;;;;;35.78;18.90;;;;;;;;;;5061802;28;20054;-75
2021/09/15 09:29:17;;;;;;;45.17;19.73;;;;;;;;;;5062423;28;20103;-75
2021/09/15 09:31:56;;;;;;;31.97;19.03;;;;;;;;;;5073602;28;20031;-75
2021/09/15 09:34:24;;;;;;;30.35;17.33;;;;;;;;;;5076625;28;20054;-74
2021/09/15 09:37:02;;;;;;;36.72;16.98;;;;;;;;;;5060415;28;20028;-75
2021/09/15 09:39:44;;;;;;;34.22;19.00;;;;;;;;;;5063556;28;20025;-75
2021/09/15 09:42:21;;;;;;;;;;;;;;;;;;5079062;28;20657;-74
2021/09/15 09:44:47;;;;;;;36.92;17.48;;;;;;;;;;5064353;28;19962;-75
2021/09/15 09:47:20;;;;;;;33.55;16.13;;;;;;;;;;5062004;28;20056;-74
2021/09/15 09:50:09;;;;;;;33.50;17.42;;;;;;;;;;5061392;28;20093;-74
2021/09/15 09:53:01;;;;;;;29.33;16.33;;;;;;;;;;5060576;28;20454;-75
2021/09/15 09:55:32;;;;;;;34.80;17.67;;;;;;;;;;5076062;28;20103;-74
2021/09/15 09:57:58;;;;;;;32.20;16.05;;;;;;;;;;5063105;28;20505;-75
2021/09/15 10:00:24;;;;;;;37.17;17.85;;;;;;;;;;5065668;28;20024;-75
2021/09/15 10:02:50;;;;;;;28.13;16.38;;;;;;;;;;5064918;28;20020;-75
2021/09/15 10:05:21;;;;;;;34.40;15.23;;;;;;;;;;5063816;28;20124;-75
2021/09/15 10:07:47;;;;;;;31.73;16.80;;;;;;;;;;5065623;28;20171;-75
2021/09/15 10:10:15;;;;;;;27.65;15.13;;;;;;;;;;5066349;28;20036;-75
2021/09/15 10:12:41;;;;;;;32.67;17.00;;;;;;;;;;5061839;28;20036;-74
2021/09/15 10:15:10;;;;;;;33.58;16.55;;;;;;;;;;5068907;28;20413;-75
2021/09/15 10:17:46;;;;;;;26.73;14.57;;;;;;;;;;5057823;28;20060;-75
2021/09/15 10:20:14;;;;;;;27.08;16.05;;;;;;;;;;5066921;28;20028;-75
2021/09/15 10:22:48;;;;;;;28.30;15.60;;;;;;;;;;5070774;28;20055;-74
2021/09/15 10:25:14;;;;;;;33.40;16.55;;;;;;;;;;5066235;28;20037;-75
2021/09/15 10:28:10;;;;;;;29.55;15.57;;;;;;;;;;5056781;28;20029;-74
2021/09/15 10:30:50;;;;;;;34.25;17.67;;;;;;;;;;5060403;28;20379;-74
2021/09/15 10:33:35;;;;;;;26.35;13.52;;;;;;;;;;5074347;28;20378;-75
2021/09/15 10:36:00;;;;;;;19.10;11.20;;;;;;;;;;5064263;28;20032;-75
2021/09/15 10:38:52;;;;;;;20.83;10.38;;;;;;;;;;5065043;28;20029;-75
2021/09/15 10:41:37;;;;;;;20.70;9.98;;;;;;;;;;5079780;28;20436;-75
2021/09/15 10:44:14;;;;;;;24.27;10.02;;;;;;;;;;5063963;28;20036;-75
2021/09/15 10:46:44;;;;;;;21.63;10.63;;;;;;;;;;5066115;28;20032;-75
2021/09/15 10:49:39;;;;;;;22.52;10.40;;;;;;;;;;5075522;28;20036;-75
2021/09/15 10:52:07;;;;;;;25.20;11.23;;;;;;;;;;5067323;28;20028;-74
2021/09/15 10:54:54;;;;;;;21.33;10.13;;;;;;;;;;5068093;28;20032;-75
2021/09/15 10:57:27;;;;;;;19.85;9.40;;;;;;;;;;5067521;28;20481;-75
2021/09/15 10:59:56;;;;;;;19.83;10.00;;;;;;;;;;5083082;28;20485;-75
2021/09/15 11:02:24;;;;;;;20.52;10.57;;;;;;;;;;5066083;28;20035;-75
2021/09/15 11:04:50;;;;;;;22.27;11.40;;;;;;;;;;5062711;28;20060;-75
2021/09/15 11:07:49;;;;;;;21.33;10.93;;;;;;;;;;5063423;28;20105;-74
2021/09/15 11:10:33;;;;;;;19.10;12.57;;;;;;;;;;5066790;28;20032;-74
2021/09/15 11:13:07;;;;;;;23.45;11.60;;;;;;;;;;5079853;28;20067;-75
2021/09/15 11:15:44;;;;;;;26.38;11.35;;;;;;;;;;5061882;28;20056;-75
2021/09/15 11:18:24;;;;;;;23.92;10.52;;;;;;;;;;5066648;28;20405;-75
2021/09/15 11:20:57;;;;;;;18.23;9.70;;;;;;;;;;5063219;28;20103;-75
2021/09/15 11:23:28;;;;;;;17.30;9.35;;;;;;;;;;5067286;28;20042;-75
2021/09/15 11:25:54;;;;;;;16.98;9.15;;;;;;;;;;5064066;28;20021;-75
2021/09/15 11:28:22;;;;;;;17.23;9.85;;;;;;;;;;5067163;28;20036;-75
2021/09/15 11:30:51;;;;;;;22.95;9.18;;;;;;;;;;5081454;28;20060;-75
2021/09/15 11:33:28;;;;;;;16.55;8.57;;;;;;;;;;5051558;28;20037;-75
2021/09/15 11:35:57;;;;;;;22.50;8.50;;;;;;;;;;5063059;28;20032;-75
2021/09/15 11:38:25;;;;;;;18.48;7.32;;;;;;;;;;5063088;28;20060;-75
2021/09/15 11:40:51;;;;;;;18.90;7.03;;;;;;;;;;5065973;28;20040;-75
2021/09/15 11:43:20;;;;;;;14.32;7.20;;;;;;;;;;5083270;28;20040;-75
2021/09/15 11:45:48;;;;;;;18.13;5.30;;;;;;;;;;5064110;28;20025;-74
2021/09/15 11:48:25;;;;;;;11.90;4.22;;;;;;;;;;5039675;28;20543;-75
2021/09/15 11:50:50;;;;;;;9.27;4.78;;;;;;;;;;5060406;28;20109;-75
2021/09/15 11:53:16;;;;;;;9.45;4.10;;;;;;;;;;5082142;28;20150;-75
2021/09/15 11:55:48;;;;;;;7.93;4.35;;;;;;;;;;5079493;28;20592;-76
2021/09/15 11:58:14;;;;;;;7.55;4.40;;;;;;;;;;5067543;28;20119;-74
2021/09/15 12:00:41;;;;;;;5.53;3.55;;;;;;;;;;5062327;28;20043;-75
2021/09/15 12:03:09;;;;;;;10.02;3.28;;;;;;;;;;5062149;28;20036;-75
2021/09/15 12:05:36;;;;;;;11.20;4.28;;;;;;;;;;5064596;28;20024;-75
2021/09/15 12:08:04;;;;;;;8.93;3.30;;;;;;;;;;5062345;28;20036;-75
2021/09/15 12:10:30;;;;;;;6.40;3.42;;;;;;;;;;5056520;28;20060;-75
2021/09/15 12:12:58;;;;;;;9.10;3.10;;;;;;;;;;5064559;28;20052;-75
2021/09/15 12:15:24;;;;;;;5.22;3.20;;;;;;;;;;5061496;28;20802;-75
2021/09/15 12:17:59;;;;;;;8.38;3.20;;;;;;;;;;5060316;28;20044;-75
2021/09/15 12:20:42;;;;;;;4.72;2.63;;;;;;;;;;5058866;28;20568;-76
2021/09/15 12:23:10;;;;;;;6.55;3.45;;;;;;;;;;5075494;28;20029;-75
2021/09/15 12:25:35;;;;;;;4.82;2.97;;;;;;;;;;5061048;28;20489;-76
2021/09/15 12:28:01;;;;;;;6.07;2.88;;;;;;;;;;5064260;28;20051;-75
2021/09/15 12:30:26;;;;;;;5.13;2.40;;;;;;;;;;5065039;28;20029;-76
2021/09/15 12:32:58;;;;;;;10.50;2.35;;;;;;;;;;5058214;28;20493;-75
2021/09/15 12:35:33;;;;;;;6.43;2.17;;;;;;;;;;5059390;28;20401;-75
2021/09/15 12:38:06;;;;;;;7.68;2.35;;;;;;;;;;5075523;28;20052;-75
2021/09/15 12:40:36;;;;;;;9.65;2.47;;;;;;;;;;5063883;28;20031;-75
2021/09/15 12:43:06;;;;;;;6.00;2.25;;;;;;;;;;5080005;28;20044;-75
2021/09/15 12:45:34;;;;;;;10.35;2.70;;;;;;;;;;5081496;28;20029;-75
2021/09/15 12:48:00;;;;;;;8.70;2.55;;;;;;;;;;5071050;28;20537;-76
2021/09/15 12:50:29;;;;;;;3.78;2.97;;;;;;;;;;5064542;28;20040;-75
2021/09/15 12:53:09;;;;;;;4.85;2.65;;;;;;;;;;5064594;28;20090;-75
2021/09/15 12:55:50;;;;;;;8.50;2.80;;;;;;;;;;5071944;28;20037;-75
2021/09/15 12:58:27;;;;;;;5.13;3.00;;;;;;;;;;5061400;28;20132;-75
2021/09/15 13:00:53;;;;;;;8.55;2.50;;;;;;;;;;5063020;28;20048;-75
2021/09/15 13:03:18;;;;;;;3.10;2.47;;;;;;;;;;5064685;28;20032;-75
2021/09/15 13:05:46;;;;;;;14.35;2.50;;;;;;;;;;5063956;28;20029;-75
2021/09/15 13:08:22;;;;;;;4.20;2.40;;;;;;;;;;5066239;28;20040;-76
2021/09/15 13:10:51;;;;;;;4.30;2.20;;;;;;;;;;5080069;28;20036;-77
2021/09/15 13:13:21;;;;;;;4.25;3.00;;;;;;;;;;5066159;28;20028;-76
2021/09/15 13:15:47;;;;;;;5.53;3.00;;;;;;;;;;5064237;28;20056;-76
2021/09/15 13:18:13;;;;;;;4.10;2.58;;;;;;;;;;5082637;28;20016;-76
2021/09/15 13:20:39;;;;;;;6.38;2.65;;;;;;;;;;5066676;28;20032;-76
2021/09/15 13:23:04;;;;;;;10.38;2.90;;;;;;;;;;5055959;28;20071;-75
2021/09/15 13:25:30;;;;;;;5.25;2.50;;;;;;;;;;5064246;28;20048;-77
2021/09/15 13:27:55;;;;;;;4.60;2.83;;;;;;;;;;5046684;28;20072;-76
2021/09/15 13:30:21;;;;;;;5.13;2.33;;;;;;;;;;5061640;28;20024;-77
2021/09/15 13:32:46;;;;;;;7.70;2.00;;;;;;;;;;5079108;28;20124;-75
2021/09/15 13:35:12;;;;;;;5.07;2.00;;;;;;;;;;5063388;28;20024;-76
2021/09/15 13:37:38;;;;;;;4.68;2.53;;;;;;;;;;5078239;28;20615;-76
2021/09/15 13:40:04;;;;;;;6.07;3.35;;;;;;;;;;5061766;28;20032;-78
2021/09/15 13:42:30;;;;;;;5.05;2.22;;;;;;;;;;5077861;28;20111;-76
2021/09/15 13:44:56;;;;;;;5.65;2.25;;;;;;;;;;5067249;28;20151;-76
2021/09/15 13:47:21;;;;;;;2.97;2.40;;;;;;;;;;5078120;28;20067;-77
2021/09/15 13:49:47;;;;;;;3.38;1.98;;;;;;;;;;5040485;28;20479;-75
2021/09/15 13:52:13;;;;;;;3.17;1.88;;;;;;;;;;5071858;28;20040;-77
2021/09/15 13:54:48;;;;;;;2.55;1.95;;;;;;;;;;5063751;28;20060;-75
2021/09/15 13:57:15;;;;;;;6.93;1.98;;;;;;;;;;5064490;28;20024;-75
2021/09/15 13:59:42;;;;;;;3.70;2.00;;;;;;;;;;5062629;28;20611;-75
2021/09/15 14:02:08;;;;;;;4.10;1.88;;;;;;;;;;5061833;28;20163;-75
2021/09/15 14:04:34;;;;;;;4.75;1.55;;;;;;;;;;5054385;28;22418;-75
2021/09/15 14:07:01;;;;;;;3.72;1.73;;;;;;;;;;5064535;28;20036;-76
2021/09/15 14:09:26;;;;;;;5.03;1.90;;;;;;;;;;5066413;28;20610;-76
2021/09/15 14:11:52;;;;;;;4.78;1.50;;;;;;;;;;5065410;28;20028;-77
2021/09/15 14:14:18;;;;;;;5.35;1.63;;;;;;;;;;5065705;28;20035;-76
2021/09/15 14:16:44;;;;;;;4.78;1.73;;;;;;;;;;5073103;28;20515;-77
2021/09/15 14:19:11;;;;;;;4.28;1.83;;;;;;;;;;5063700;28;20063;-76
2021/09/15 14:21:37;;;;;;;6.70;1.70;;;;;;;;;;5066266;28;20032;-77
2021/09/15 14:24:04;;;;;;;7.50;1.60;;;;;;;;;;5065643;28;20045;-76
2021/09/15 14:26:30;;;;;;;9.40;3.10;;;;;;;;;;5066197;28;20619;-75
2021/09/15 14:28:55;;;;;;;5.55;2.20;;;;;;;;;;5065277;28;20036;-77
2021/09/15 14:31:21;;;;;;;7.25;1.95;;;;;;;;;;5060596;28;20047;-77
2021/09/15 14:33:47;;;;;;;10.23;1.80;;;;;;;;;;5070096;28;20048;-76
2021/09/15 14:36:12;;;;;;;4.38;1.50;;;;;;;;;;5060717;28;20090;-76
2021/09/15 14:38:42;;;;;;;9.25;1.67;;;;;;;;;;5061343;28;20031;-76